createdAt,value
2019-03-19T00:00:40.246Z,-0.60
2019-03-19T00:05:48.224Z,-0.50
2019-03-19T00:10:53.196Z,-0.50
2019-03-19T00:15:57.889Z,-0.40
2019-03-19T00:21:03.671Z,-0.30
2019-03-19T00:26:08.455Z,-0.10
2019-03-19T00:31:12.950Z,0.00
2019-03-19T00:36:18.662Z,-0.10
2019-03-19T00:41:24.668Z,-0.10
2019-03-19T00:46:28.760Z,-0.20
2019-03-19T00:51:35.319Z,-0.30
2019-03-19T00:56:39.795Z,-0.30
2019-03-19T01:01:44.582Z,-0.30
2019-03-19T01:06:51.351Z,-0.40
2019-03-19T01:11:56.126Z,-0.50
2019-03-19T01:17:01.492Z,-0.60
2019-03-19T01:22:12.176Z,-0.60
2019-03-19T01:27:18.046Z,-0.50
2019-03-19T01:32:23.603Z,-0.40
2019-03-19T01:37:29.084Z,-0.40
2019-03-19T01:42:35.782Z,-0.30
2019-03-19T01:47:40.583Z,-0.30
2019-03-19T01:52:45.548Z,-0.30
2019-03-19T01:57:51.184Z,-0.30
2019-03-19T02:02:56.327Z,-0.20
2019-03-19T02:08:01.211Z,-0.10
2019-03-19T02:13:06.567Z,0.00
2019-03-19T02:18:11.060Z,0.10
2019-03-19T02:23:16.057Z,0.10
2019-03-19T02:28:21.018Z,0.20
2019-03-19T02:33:26.098Z,0.30
2019-03-19T02:38:30.570Z,0.30
2019-03-19T02:43:35.007Z,0.40
2019-03-19T02:48:40.198Z,0.40
2019-03-19T02:53:49.904Z,0.40
2019-03-19T02:58:56.488Z,0.50
2019-03-19T03:04:02.383Z,0.50
2019-03-19T03:09:08.500Z,0.50
2019-03-19T03:14:13.438Z,0.40
2019-03-19T03:19:18.443Z,0.30
2019-03-19T03:24:25.466Z,0.30
2019-03-19T03:29:30.289Z,0.20
2019-03-19T03:34:35.424Z,0.10
2019-03-19T03:39:40.446Z,0.00
2019-03-19T03:44:48.112Z,0.00
2019-03-19T03:49:53.663Z,-0.10
2019-03-19T03:54:58.805Z,-0.10
2019-03-19T04:00:03.673Z,-0.20
2019-03-19T04:05:08.152Z,-0.20
2019-03-19T04:10:13.011Z,-0.30
2019-03-19T04:15:17.545Z,-0.30
2019-03-19T04:20:23.036Z,-0.40
2019-03-19T04:25:31.150Z,-0.40
2019-03-19T04:30:35.849Z,-0.50
2019-03-19T04:35:42.235Z,-0.50
2019-03-19T04:40:49.537Z,-0.50
2019-03-19T04:45:54.260Z,-0.60
2019-03-19T04:50:59.945Z,-0.50
2019-03-19T04:56:07.974Z,-0.40
2019-03-19T05:01:12.739Z,-0.30
2019-03-19T05:06:20.052Z,-0.10
2019-03-19T05:11:24.704Z,0.10
2019-03-19T05:16:30.528Z,0.20
2019-03-19T05:21:36.830Z,0.30
2019-03-19T05:26:42.495Z,0.30
2019-03-19T05:31:50.185Z,0.40
2019-03-19T05:36:55.851Z,0.40
2019-03-19T05:42:02.574Z,0.50
2019-03-19T05:47:08.070Z,0.50
2019-03-19T05:52:13.254Z,0.50
2019-03-19T05:57:17.937Z,0.50
2019-03-19T06:02:23.420Z,0.60
2019-03-19T06:07:28.364Z,0.70
2019-03-19T06:12:44.941Z,0.70
2019-03-19T06:17:51.985Z,0.80
2019-03-19T06:22:57.799Z,0.80
2019-03-19T06:28:04.029Z,0.90
2019-03-19T06:33:08.907Z,1.00
2019-03-19T06:38:16.474Z,1.10
2019-03-19T06:43:21.907Z,1.30
2019-03-19T06:48:26.980Z,1.70
2019-03-19T06:53:31.670Z,2.60
2019-03-19T06:58:36.111Z,3.50
2019-03-19T07:03:44.341Z,3.60
2019-03-19T07:08:53.491Z,3.70
2019-03-19T07:13:58.583Z,3.40
2019-03-19T07:19:05.563Z,3.10
2019-03-19T07:24:10.289Z,3.30
2019-03-19T07:29:15.780Z,5.20
2019-03-19T07:34:24.111Z,8.20
2019-03-19T07:39:28.921Z,11.50
2019-03-19T07:44:33.338Z,13.50
2019-03-19T07:49:39.613Z,14.80
2019-03-19T07:54:44.193Z,15.80
2019-03-19T07:59:48.631Z,16.20
2019-03-19T08:04:53.567Z,16.10
2019-03-19T08:09:58.825Z,16.60
2019-03-19T08:15:04.847Z,15.80
2019-03-19T08:20:11.032Z,16.40
2019-03-19T08:25:15.826Z,17.00
2019-03-19T08:30:20.676Z,17.20
2019-03-19T08:35:25.111Z,16.50
2019-03-19T08:40:29.671Z,16.70
2019-03-19T08:45:36.998Z,15.60
2019-03-19T08:50:42.707Z,15.60
2019-03-19T08:55:50.834Z,17.70
2019-03-19T09:00:56.012Z,17.10
2019-03-19T09:06:00.718Z,15.50
2019-03-19T09:11:05.443Z,14.30
2019-03-19T09:16:10.161Z,12.20
2019-03-19T09:21:15.307Z,11.00
2019-03-19T09:26:20.372Z,11.70
2019-03-19T09:31:28.261Z,12.40
2019-03-19T09:36:33.002Z,14.00
2019-03-19T09:41:37.936Z,15.00
2019-03-19T09:46:43.019Z,16.10
2019-03-19T09:51:48.172Z,13.40
2019-03-19T09:56:52.729Z,14.80
2019-03-19T10:01:58.354Z,16.30
2019-03-19T10:07:06.372Z,15.50
2019-03-19T10:12:09.674Z,14.80
2019-03-19T10:17:14.327Z,13.50
2019-03-19T10:22:19.163Z,13.90
2019-03-19T10:27:23.880Z,13.50
2019-03-19T10:32:28.513Z,11.80
2019-03-19T10:37:33.755Z,12.00
2019-03-19T10:42:38.819Z,11.60
2019-03-19T10:47:43.577Z,11.70
2019-03-19T10:52:48.265Z,11.50
2019-03-19T10:57:55.462Z,11.50
2019-03-19T11:02:59.889Z,12.00
2019-03-19T11:08:05.062Z,11.20
2019-03-19T11:13:10.325Z,12.00
2019-03-19T11:18:15.072Z,11.90
2019-03-19T11:23:20.473Z,12.50
2019-03-19T11:28:25.236Z,12.90
2019-03-19T11:33:33.275Z,13.10
2019-03-19T11:38:38.143Z,12.20
2019-03-19T11:43:43.294Z,10.60
2019-03-19T11:48:48.597Z,10.80
2019-03-19T11:53:53.931Z,11.10
2019-03-19T11:58:59.200Z,10.80
2019-03-19T12:04:04.298Z,10.60
2019-03-19T12:09:09.252Z,10.30
2019-03-19T12:14:14.222Z,10.00
2019-03-19T12:19:19.118Z,9.70
2019-03-19T12:24:24.155Z,10.40
2019-03-19T12:29:28.582Z,11.40
2019-03-19T12:34:33.163Z,11.40
2019-03-19T12:39:37.601Z,10.60
2019-03-19T12:44:42.426Z,10.40
2019-03-19T12:49:47.627Z,10.30
2019-03-19T12:54:52.404Z,11.00
2019-03-19T12:59:57.484Z,12.00
2019-03-19T13:05:02.369Z,11.90
2019-03-19T13:10:08.647Z,11.70
2019-03-19T13:15:15.937Z,11.60
2019-03-19T13:20:20.316Z,11.10
2019-03-19T13:25:25.871Z,11.00
2019-03-19T13:30:30.285Z,10.20
2019-03-19T13:35:37.970Z,10.60
2019-03-19T13:40:42.940Z,10.20
2019-03-19T13:45:47.931Z,9.30
2019-03-19T13:50:54.335Z,9.10
2019-03-19T13:55:59.559Z,8.70
2019-03-19T14:01:04.303Z,8.70
2019-03-19T14:06:11.091Z,8.70
2019-03-19T14:11:15.596Z,8.70
2019-03-19T14:16:20.302Z,8.60
2019-03-19T14:21:24.889Z,8.40
2019-03-19T14:26:30.056Z,9.10
2019-03-19T14:31:34.387Z,10.10
2019-03-19T14:36:39.010Z,10.80
2019-03-19T14:41:45.589Z,11.00
2019-03-19T14:46:50.708Z,10.70
2019-03-19T14:51:55.182Z,10.70
2019-03-19T14:56:59.931Z,10.60
2019-03-19T15:02:04.633Z,10.70
2019-03-19T15:07:09.126Z,10.80
2019-03-19T15:12:13.679Z,11.20
2019-03-19T15:17:18.913Z,11.00
2019-03-19T15:22:32.069Z,10.80
2019-03-19T15:27:30.296Z,10.80
2019-03-19T15:32:35.837Z,10.30
2019-03-19T15:37:41.433Z,10.20
2019-03-19T15:42:46.702Z,10.50
2019-03-19T15:47:54.281Z,10.40
2019-03-19T15:52:58.677Z,10.20
2019-03-19T15:58:06.123Z,9.80
2019-03-19T16:03:11.800Z,9.50
2019-03-19T16:08:17.258Z,9.20
2019-03-19T16:13:23.582Z,9.00
2019-03-19T16:18:29.098Z,8.70
2019-03-19T16:23:34.743Z,8.50
2019-03-19T16:28:39.351Z,8.50
2019-03-19T16:33:44.403Z,8.40
2019-03-19T16:38:49.296Z,8.30
2019-03-19T16:43:54.769Z,8.20
2019-03-19T16:49:00.149Z,8.00
2019-03-19T16:54:05.055Z,7.80
2019-03-19T16:59:11.169Z,7.60
2019-03-19T17:04:16.528Z,7.40
2019-03-19T17:09:21.752Z,7.20
2019-03-19T17:14:27.101Z,6.90
2019-03-19T17:19:31.884Z,6.70
2019-03-19T17:24:36.731Z,6.60
2019-03-19T17:29:42.679Z,6.30
2019-03-19T17:34:48.293Z,6.30
2019-03-19T17:39:53.694Z,6.10
2019-03-19T17:45:00.740Z,5.80
2019-03-19T17:50:09.304Z,5.60
2019-03-19T17:55:14.505Z,5.60
2019-03-19T18:00:25.325Z,5.40
2019-03-19T18:05:34.401Z,5.10
2019-03-19T18:10:39.595Z,5.00
2019-03-19T18:15:47.338Z,4.80
2019-03-19T18:20:52.420Z,4.70
2019-03-19T18:25:57.357Z,4.60
2019-03-19T18:31:02.166Z,4.40
2019-03-19T18:36:07.042Z,4.30
2019-03-19T18:41:12.300Z,4.30
2019-03-19T18:46:18.624Z,4.20
2019-03-19T18:51:24.755Z,4.30
2019-03-19T18:56:29.670Z,4.20
2019-03-19T19:01:34.312Z,4.10
2019-03-19T19:06:39.668Z,3.80
2019-03-19T19:11:44.862Z,3.50
2019-03-19T19:16:50.328Z,3.10
2019-03-19T19:21:56.810Z,2.80
2019-03-19T19:27:03.344Z,2.60
2019-03-19T19:32:11.374Z,2.40
2019-03-19T19:37:16.772Z,2.20
2019-03-19T19:42:22.957Z,2.00
2019-03-19T19:47:29.081Z,1.90
2019-03-19T19:52:36.080Z,1.70
2019-03-19T19:57:41.314Z,1.60
2019-03-19T20:02:46.459Z,1.40
2019-03-19T20:07:50.941Z,1.20
2019-03-19T20:12:55.572Z,1.10
2019-03-19T20:18:00.437Z,1.10
2019-03-19T20:23:05.311Z,1.00
2019-03-19T20:28:10.102Z,0.90
2019-03-19T20:33:24.492Z,0.80
2019-03-19T20:38:21.879Z,0.70
2019-03-19T20:43:26.422Z,0.60
2019-03-19T20:48:32.171Z,0.50
2019-03-19T20:53:37.417Z,0.50
2019-03-19T20:58:43.714Z,0.40
2019-03-19T21:03:48.779Z,0.20
2019-03-19T21:08:53.595Z,0.10
2019-03-19T21:13:58.893Z,0.00
2019-03-19T21:19:03.693Z,-0.10
2019-03-19T21:24:08.180Z,-0.20
2019-03-19T21:29:13.495Z,-0.20
2019-03-19T21:34:18.784Z,-0.20
2019-03-19T21:39:23.620Z,-0.20
2019-03-19T21:44:28.889Z,-0.30
2019-03-19T21:49:34.043Z,-0.40
2019-03-19T21:54:38.994Z,-0.50
2019-03-19T21:59:43.350Z,-0.50
2019-03-19T22:04:50.806Z,-0.40
2019-03-19T22:09:55.551Z,-0.30
2019-03-19T22:15:00.412Z,-0.30
2019-03-19T22:20:05.353Z,0.00
2019-03-19T22:25:13.144Z,0.00
2019-03-19T22:30:18.173Z,-0.10
2019-03-19T22:35:23.181Z,-0.10
2019-03-19T22:40:28.236Z,-0.30
2019-03-19T22:45:33.210Z,-0.40
2019-03-19T22:50:37.825Z,-0.50
2019-03-19T22:55:42.543Z,-0.60
2019-03-19T23:00:50.245Z,-0.70
2019-03-19T23:05:55.298Z,-0.70
2019-03-19T23:10:59.836Z,-0.80
2019-03-19T23:16:04.371Z,-0.90
2019-03-19T23:21:09.576Z,-0.80
2019-03-19T23:26:14.023Z,-0.80
2019-03-19T23:31:18.683Z,-0.80
2019-03-19T23:36:23.390Z,-0.80
2019-03-19T23:41:28.733Z,-0.90
2019-03-19T23:46:33.497Z,-1.00
2019-03-19T23:51:38.553Z,-1.20
2019-03-19T23:56:44.149Z,-1.20
